createdAt,value
2018-05-27T14:10:05.083Z,26.30
2018-05-27T14:12:32.524Z,26.30
2018-05-27T14:15:00.553Z,26.30
2018-05-27T14:17:28.010Z,26.30
2018-05-27T14:19:55.514Z,26.30
2018-05-27T14:22:23.438Z,26.30
2018-05-27T14:24:50.897Z,26.30
2018-05-27T14:27:18.366Z,26.30
2018-05-27T14:29:45.956Z,26.30
2018-05-27T14:32:13.522Z,26.30
2018-05-27T14:34:41.180Z,26.40
2018-05-27T14:37:08.740Z,26.50
2018-05-27T14:39:36.213Z,26.60
2018-05-27T14:42:03.710Z,26.70
2018-05-27T14:44:31.248Z,26.90
2018-05-27T14:46:59.486Z,26.90
2018-05-27T14:49:26.936Z,26.90
2018-05-27T14:51:54.413Z,27.00
2018-05-27T14:54:21.929Z,27.00
2018-05-27T14:56:49.393Z,27.00
2018-05-27T14:59:16.909Z,26.90
2018-05-27T15:01:45.150Z,26.90
2018-05-27T15:04:12.609Z,26.80
2018-05-27T15:06:40.077Z,26.80
2018-05-27T15:09:07.549Z,26.80
2018-05-27T15:11:35.009Z,26.80
2018-05-27T15:14:03.242Z,26.80
2018-05-27T15:16:30.784Z,26.70
2018-05-27T15:18:58.250Z,26.80
2018-05-27T15:21:25.750Z,26.70
2018-05-27T15:23:53.218Z,26.60
2018-05-27T15:26:20.685Z,26.70
2018-05-27T15:28:48.154Z,26.70
2018-05-27T15:31:16.406Z,26.70
2018-05-27T15:33:43.898Z,26.70
2018-05-27T15:36:12.168Z,26.70
2018-05-27T15:38:40.397Z,26.60
2018-05-27T15:41:07.865Z,26.60
2018-05-27T15:43:35.343Z,26.60
2018-05-27T15:46:03.574Z,26.60
2018-05-27T15:48:31.074Z,26.60
2018-05-27T15:50:59.349Z,26.60
2018-05-27T15:53:27.589Z,26.60
2018-05-27T15:55:55.101Z,26.60
2018-05-27T15:58:23.361Z,26.60
2018-05-27T16:00:50.816Z,26.60
2018-05-27T16:03:19.093Z,26.60
2018-05-27T16:05:46.553Z,26.60
2018-05-27T16:08:14.108Z,26.50
2018-05-27T16:10:41.669Z,26.50
2018-05-27T16:13:09.141Z,26.50
2018-05-27T16:15:37.373Z,26.50
2018-05-27T16:18:04.845Z,26.50
2018-05-27T16:20:32.321Z,26.60
2018-05-27T16:22:59.834Z,26.60
2018-05-27T16:25:27.336Z,26.70
2018-05-27T16:27:54.813Z,26.90
2018-05-27T16:30:23.038Z,27.00
2018-05-27T16:32:50.509Z,27.00
2018-05-27T16:35:17.989Z,27.00
2018-05-27T16:37:45.551Z,27.00
2018-05-27T16:40:13.113Z,26.90
2018-05-27T16:42:40.597Z,26.70
2018-05-27T16:45:08.850Z,26.30
2018-05-27T16:47:36.314Z,26.70
2018-05-27T16:50:03.869Z,26.20
2018-05-27T16:52:32.553Z,26.00
2018-05-27T16:55:00.119Z,26.00
2018-05-27T16:57:29.429Z,25.90
2018-05-27T16:59:57.669Z,25.80
2018-05-27T17:02:25.124Z,25.80
2018-05-27T17:04:52.612Z,25.70
2018-05-27T17:07:20.077Z,25.60
2018-05-27T17:09:48.338Z,25.40
2018-05-27T17:12:15.822Z,25.40
2018-05-27T17:14:44.180Z,25.30
2018-05-27T17:17:11.670Z,25.30
2018-05-27T17:19:39.906Z,25.20
2018-05-27T17:22:07.378Z,25.20
2018-05-27T17:24:34.848Z,25.10
2018-05-27T17:27:03.089Z,25.00
2018-05-27T17:29:30.581Z,25.00
2018-05-27T17:31:58.131Z,24.90
2018-05-27T17:34:25.596Z,24.90
2018-05-27T17:36:53.825Z,24.70
2018-05-27T17:39:21.298Z,24.60
2018-05-27T17:41:48.762Z,24.70
2018-05-27T17:44:16.241Z,24.70
2018-05-27T17:46:43.753Z,24.60
2018-05-27T17:49:11.265Z,24.60
2018-05-27T17:51:38.814Z,24.60
2018-05-27T17:54:06.383Z,24.50
2018-05-27T17:56:33.861Z,24.40
2018-05-27T17:59:02.170Z,24.10
2018-05-27T18:01:29.680Z,24.10
2018-05-27T18:03:57.159Z,24.00
2018-05-27T18:06:25.396Z,23.70
2018-05-27T18:08:52.977Z,23.60
2018-05-27T18:11:20.543Z,23.50
2018-05-27T18:13:48.097Z,23.40
2018-05-27T18:16:15.566Z,23.30
2018-05-27T18:18:43.035Z,23.20
2018-05-27T18:21:11.260Z,23.00
2018-05-27T18:23:38.729Z,23.00
2018-05-27T18:26:06.301Z,22.90
2018-05-27T18:28:33.861Z,22.80
2018-05-27T18:31:01.317Z,22.70
2018-05-27T18:33:28.785Z,22.60
2018-05-27T18:35:56.241Z,22.50
2018-05-27T18:38:23.706Z,22.40
2018-05-27T18:40:51.257Z,22.20
2018-05-27T18:43:18.720Z,22.10
2018-05-27T18:45:46.203Z,22.00
2018-05-27T18:48:14.457Z,21.80
2018-05-27T18:50:42.013Z,21.80
2018-05-27T18:53:09.480Z,21.70
2018-05-27T18:55:36.944Z,21.70
2018-05-27T18:58:05.200Z,21.50
2018-05-27T19:00:32.684Z,21.50
2018-05-27T19:03:00.916Z,21.30
2018-05-27T19:05:28.401Z,21.30
2018-05-27T19:07:55.869Z,21.20
2018-05-27T19:10:23.342Z,21.10
2018-05-27T19:12:51.588Z,20.90
2018-05-27T19:15:19.061Z,20.90
2018-05-27T19:17:46.605Z,20.80
2018-05-27T19:20:14.066Z,20.70
2018-05-27T19:22:41.541Z,20.50
2018-05-27T19:25:09.784Z,20.40
2018-05-27T19:27:37.361Z,20.30
2018-05-27T19:30:04.924Z,20.20
2018-05-27T19:32:32.407Z,20.10
2018-05-27T19:35:00.657Z,20.00
2018-05-27T19:37:28.272Z,19.90
2018-05-27T19:39:55.768Z,19.90
2018-05-27T19:42:23.388Z,19.80
2018-05-27T19:44:50.800Z,19.70
2018-05-27T19:47:18.265Z,19.60
2018-05-27T19:49:45.815Z,19.60
2018-05-27T19:52:14.046Z,19.40
2018-05-27T19:54:41.525Z,19.40
2018-05-27T19:57:09.013Z,19.30
2018-05-27T19:59:36.567Z,19.20
2018-05-27T20:02:04.044Z,19.10
2018-05-27T20:04:32.277Z,19.00
2018-05-27T20:06:59.757Z,19.00
2018-05-27T20:09:27.238Z,19.00
2018-05-27T20:11:55.495Z,18.90
2018-05-27T20:14:22.973Z,18.80
2018-05-27T20:16:51.208Z,18.70
2018-05-27T20:19:18.688Z,18.70
2018-05-27T20:21:46.244Z,18.70
2018-05-27T20:24:13.807Z,18.60
2018-05-27T20:26:42.080Z,18.50
2018-05-27T20:29:09.511Z,18.50
2018-05-27T20:31:37.004Z,18.50
2018-05-27T20:34:04.469Z,18.50
2018-05-27T20:36:32.025Z,18.40
2018-05-27T20:38:59.493Z,18.30
2018-05-27T20:41:26.964Z,18.30
2018-05-27T20:43:55.213Z,18.10
2018-05-27T20:46:23.452Z,18.00
2018-05-27T20:48:51.005Z,18.00
2018-05-27T20:51:18.514Z,18.00
2018-05-27T20:53:45.989Z,17.90
2018-05-27T20:56:14.260Z,17.80
2018-05-27T20:58:41.724Z,17.80
2018-05-27T21:01:09.981Z,17.70
2018-05-27T21:03:37.537Z,17.70
2018-05-27T21:06:05.071Z,17.70
2018-05-27T21:08:32.476Z,17.60
2018-05-27T21:11:00.740Z,17.50
2018-05-27T21:13:28.201Z,17.50
2018-05-27T21:15:55.668Z,17.50
2018-05-27T21:18:23.913Z,17.30
2018-05-27T21:20:51.377Z,17.30
2018-05-27T21:23:18.940Z,17.20
2018-05-27T21:25:46.500Z,17.10
2018-05-27T21:28:13.970Z,17.00
2018-05-27T21:30:42.202Z,16.90
2018-05-27T21:33:09.689Z,16.90
2018-05-27T21:35:37.314Z,16.80
2018-05-27T21:38:04.817Z,16.80
2018-05-27T21:40:32.278Z,16.70
2018-05-27T21:42:59.841Z,16.60
2018-05-27T21:45:28.116Z,16.50
2018-05-27T21:47:55.682Z,16.40
2018-05-27T21:50:23.246Z,16.40
2018-05-27T21:52:50.708Z,16.30
2018-05-27T21:55:18.168Z,16.30
2018-05-27T21:57:46.433Z,16.20
2018-05-27T22:00:13.989Z,16.20
2018-05-27T22:02:41.444Z,16.10
2018-05-27T22:05:08.909Z,16.10
2018-05-27T22:07:36.374Z,16.10
2018-05-27T22:10:03.842Z,16.00
2018-05-27T22:12:32.069Z,16.00
2018-05-27T22:14:59.537Z,16.00
2018-05-27T22:17:26.997Z,15.20
2018-05-27T22:19:54.533Z,16.00
2018-05-27T22:22:22.031Z,16.00
2018-05-27T22:24:49.596Z,16.00
2018-05-27T22:27:17.153Z,16.00
2018-05-27T22:29:44.712Z,15.90
2018-05-27T22:32:12.277Z,15.90
2018-05-27T22:34:39.733Z,15.90
2018-05-27T22:37:07.209Z,15.90
2018-05-27T22:39:35.477Z,15.90
2018-05-27T22:42:03.032Z,15.90
2018-05-27T22:44:30.586Z,15.80
2018-05-27T22:46:58.045Z,15.80
2018-05-27T22:49:25.521Z,15.90
2018-05-27T22:51:52.981Z,15.90
2018-05-27T22:54:21.297Z,16.10
2018-05-27T22:56:48.753Z,16.00
2018-05-27T22:59:16.259Z,16.00
2018-05-27T23:01:43.825Z,16.00
2018-05-27T23:04:11.289Z,15.90
2018-05-27T23:06:38.749Z,15.90
2018-05-27T23:09:06.982Z,15.90
2018-05-27T23:11:34.486Z,15.80
2018-05-27T23:14:01.992Z,15.90
2018-05-27T23:16:29.453Z,15.80
2018-05-27T23:18:56.954Z,15.80
2018-05-27T23:21:24.508Z,15.70
2018-05-27T23:23:52.068Z,15.70
2018-05-27T23:26:19.561Z,15.60
2018-05-27T23:28:47.785Z,15.50
2018-05-27T23:31:15.261Z,15.50
2018-05-27T23:33:42.725Z,15.40
2018-05-27T23:36:10.297Z,15.40
2018-05-27T23:38:37.845Z,15.30
2018-05-27T23:41:05.315Z,15.30
2018-05-27T23:43:33.577Z,15.20
2018-05-27T23:46:01.804Z,15.20
2018-05-27T23:48:29.277Z,15.20
2018-05-27T23:50:56.769Z,15.10
2018-05-27T23:53:24.237Z,15.10
2018-05-27T23:55:51.789Z,15.00
2018-05-27T23:58:19.340Z,15.00
